Time;durP1;ratioP1;P1;durP2;ratioP2;P2;SDS_P1;SDS_P2;PMS_P1;PMS_P2;Temp;Humidity;BMP_temperature;BMP_pressure;BME280_temperature;BME280_humidity;BME280_pressure;Samples;Min_cycle;Max_cycle;Signal;HPM_P1;HPM_P2
2022/06/05 00:01:20;;;;;;;10.23;9.27;;;16.60;99.90;;;;;;5130979;27;20235;-76
2022/06/05 00:03:55;;;;;;;11.37;10.17;;;16.50;99.90;;;;;;5102132;28;20281;-77
2022/06/05 00:06:29;;;;;;;14.23;10.17;;;16.50;99.90;;;;;;5114385;28;20288;-76
2022/06/05 00:09:22;;;;;;;11.83;9.63;;;16.50;99.90;;;;;;5116761;27;20695;-76
2022/06/05 00:11:54;;;;;;;11.67;10.57;;;16.40;99.90;;;;;;5135176;27;20612;-76
2022/06/05 00:14:22;;;;;;;12.30;10.03;;;16.20;99.90;;;;;;5135040;27;20686;-76
2022/06/05 00:16:50;;;;;;;11.13;10.03;;;16.00;99.90;;;;;;5133789;27;20319;-76
2022/06/05 00:19:17;;;;;;;9.97;8.97;;;15.90;99.90;;;;;;5115788;27;20740;-76
2022/06/05 00:21:44;;;;;;;10.53;9.43;;;15.80;99.90;;;;;;5114948;27;20229;-76
2022/06/05 00:24:11;;;;;;;11.37;9.80;;;15.80;99.90;;;;;;5113404;28;20289;-76
2022/06/05 00:26:46;;;;;;;11.40;10.20;;;15.80;99.90;;;;;;5114519;28;20280;-76
2022/06/05 00:29:25;;;;;;;14.17;10.40;;;15.80;99.90;;;;;;5110209;27;20230;-76
2022/06/05 00:32:03;;;;;;;11.37;9.90;;;15.80;99.90;;;;;;5122332;27;20229;-76
2022/06/05 00:34:30;;;;;;;11.90;10.70;;;15.90;99.90;;;;;;5113348;27;20220;-76
2022/06/05 00:37:09;;;;;;;11.90;10.63;;;15.90;99.90;;;;;;5093837;28;20234;-76
2022/06/05 00:39:46;;;;;;;13.13;11.27;;;16.00;99.90;;;;;;5094100;28;20252;-76
2022/06/05 00:42:17;;;;;;;12.70;10.97;;;16.00;99.90;;;;;;5093915;28;20552;-76
2022/06/05 00:44:47;;;;;;;14.20;11.70;;;16.00;99.90;;;;;;5122224;27;20235;-76
2022/06/05 00:47:18;;;;;;;13.77;12.43;;;16.10;99.90;;;;;;5120140;27;20288;-76
2022/06/05 00:49:49;;;;;;;14.70;13.10;;;16.00;99.90;;;;;;5113708;28;20255;-76
2022/06/05 00:52:17;;;;;;;13.80;12.40;;;16.10;99.90;;;;;;5108893;28;20281;-76
2022/06/05 00:54:44;;;;;;;14.67;12.43;;;16.00;99.90;;;;;;5114251;27;20256;-76
2022/06/05 00:57:13;;;;;;;13.87;12.57;;;16.00;99.90;;;;;;5134459;27;20247;-77
2022/06/05 00:59:43;;;;;;;13.57;12.30;;;15.90;99.90;;;;;;5134766;27;20280;-76
2022/06/05 01:02:11;;;;;;;13.67;12.33;;;15.90;99.90;;;;;;5134617;27;20291;-76
2022/06/05 01:04:44;;;;;;;15.27;12.40;;;15.90;99.90;;;;;;5131479;27;20624;-76
2022/06/05 01:07:11;;;;;;;14.43;12.30;;;15.80;99.90;;;;;;5112768;28;20930;-76
2022/06/05 01:09:40;;;;;;;13.63;12.00;;;15.70;99.90;;;;;;5113886;28;20624;-76
2022/06/05 01:12:14;;;;;;;13.67;12.33;;;15.60;99.90;;;;;;5116497;27;20241;-76
2022/06/05 01:14:57;;;;;;;15.27;12.70;;;15.60;99.90;;;;;;5122249;27;20305;-76
2022/06/05 01:17:32;;;;;;;12.73;11.43;;;15.60;99.90;;;;;;5125385;27;20228;-76
2022/06/05 01:20:08;;;;;;;15.00;12.97;;;15.50;99.90;;;;;;5110496;27;20225;-76
2022/06/05 01:23:03;;;;;;;14.43;12.83;;;15.50;99.90;;;;;;5105476;27;20860;-76
2022/06/05 01:25:44;;;;;;;14.07;12.67;;;15.40;99.90;;;;;;5120664;27;20200;-76
2022/06/05 01:28:15;;;;;;;13.07;11.67;;;15.30;99.90;;;;;;5127437;27;20198;-76
2022/06/05 01:30:48;;;;;;;11.93;10.70;;;15.10;99.90;;;;;;5113198;28;20288;-76
2022/06/05 01:33:22;;;;;;;13.33;11.90;;;14.80;99.90;;;;;;5113315;28;20609;-76
2022/06/05 01:36:02;;;;;;;13.47;10.43;;;14.70;99.90;;;;;;5112187;28;20391;-76
2022/06/05 01:38:36;;;;;;;12.70;11.23;;;14.50;99.90;;;;;;5118078;27;20204;-76
2022/06/05 01:41:10;;;;;;;12.77;11.40;;;14.50;99.90;;;;;;5133518;27;20244;-76
2022/06/05 01:43:41;;;;;;;16.30;14.53;;;14.40;99.90;;;;;;5119590;27;20284;-76
2022/06/05 01:46:12;;;;;;;19.47;15.33;;;14.70;99.90;;;;;;5112559;28;20285;-76
2022/06/05 01:48:43;;;;;;;17.40;15.17;;;14.90;99.90;;;;;;5112927;28;20653;-76
2022/06/05 01:51:19;;;;;;;16.33;14.70;;;14.90;99.90;;;;;;5112515;28;20290;-76
2022/06/05 01:53:50;;;;;;;17.67;15.83;;;14.80;99.90;;;;;;5119087;27;20197;-76
2022/06/05 01:56:24;;;;;;;17.03;15.20;;;14.90;99.90;;;;;;5112416;28;20308;-76
2022/06/05 01:58:55;;;;;;;17.63;15.33;;;14.80;99.90;;;;;;5112302;28;20289;-76
2022/06/05 02:01:28;;;;;;;18.53;16.63;;;14.80;99.90;;;;;;5122673;27;20233;-77
2022/06/05 02:03:59;;;;;;;20.10;16.17;;;14.70;99.90;;;;;;5133220;27;20235;-76
2022/06/05 02:06:30;;;;;;;19.33;16.90;;;14.70;99.90;;;;;;5114577;27;20281;-76
2022/06/05 02:09:01;;;;;;;19.03;17.03;;;14.60;99.90;;;;;;5112759;28;20200;-76
2022/06/05 02:11:32;;;;;;;18.03;16.23;;;14.60;99.90;;;;;;5120309;27;20224;-76
2022/06/05 02:14:01;;;;;;;19.03;17.03;;;14.60;99.90;;;;;;5111966;28;20280;-76
2022/06/05 02:16:30;;;;;;;20.47;17.37;;;14.50;99.90;;;;;;5111639;28;20324;-76
2022/06/05 02:18:59;;;;;;;20.17;17.47;;;14.50;99.90;;;;;;5112094;28;20296;-77
2022/06/05 02:21:26;;;;;;;21.27;18.90;;;14.40;99.90;;;;;;5112016;28;20291;-76
2022/06/05 02:23:53;;;;;;;22.00;18.03;;;14.40;99.90;;;;;;5092177;28;20636;-76
2022/06/05 02:26:20;;;;;;;19.33;16.87;;;14.30;99.90;;;;;;5092317;28;20285;-76
2022/06/05 02:28:48;;;;;;;20.80;18.63;;;14.30;99.90;;;;;;5107590;28;20284;-76
2022/06/05 02:31:27;;;;;;;21.20;18.47;;;14.30;99.90;;;;;;5112202;28;20197;-76
2022/06/05 02:34:05;;;;;;;22.77;17.77;;;14.30;99.90;;;;;;5102918;28;20284;-76
2022/06/05 02:36:43;;;;;;;20.33;18.13;;;14.20;99.90;;;;;;5127602;27;20716;-76
2022/06/05 02:39:19;;;;;;;20.43;18.33;;;14.20;99.90;;;;;;5114626;27;20208;-76
2022/06/05 02:41:57;;;;;;;22.83;18.67;;;14.20;99.90;;;;;;5112140;28;20225;-76
2022/06/05 02:44:35;;;;;;;21.10;18.57;;;14.20;99.90;;;;;;5111951;28;20253;-76
2022/06/05 02:47:19;;;;;;;20.77;18.37;;;14.20;99.90;;;;;;5124799;27;20192;-76
2022/06/05 02:49:53;;;;;;;23.30;19.83;;;14.10;99.90;;;;;;5132699;27;20283;-76
2022/06/05 02:52:20;;;;;;;20.83;18.63;;;14.10;99.90;;;;;;5115340;27;20229;-76
2022/06/05 02:54:51;;;;;;;22.83;19.60;;;14.10;99.90;;;;;;5091621;28;20245;-76
2022/06/05 02:57:20;;;;;;;22.80;18.83;;;14.00;99.90;;;;;;5107095;28;20193;-76
2022/06/05 02:59:48;;;;;;;22.83;19.00;;;14.10;99.90;;;;;;5132394;27;20205;-76
2022/06/05 03:05:00;;;;;;;22.17;19.10;;;14.10;99.90;;;;;;5119541;28;20302;-76
2022/06/05 03:07:27;;;;;;;27.80;20.67;;;14.10;99.90;;;;;;5125691;27;20246;-76
2022/06/05 03:09:53;;;;;;;25.20;20.40;;;14.10;99.90;;;;;;5111747;28;20197;-76
2022/06/05 03:12:20;;;;;;;24.27;20.57;;;14.10;99.90;;;;;;5112232;28;20229;-76
2022/06/05 03:14:49;;;;;;;29.13;20.90;;;14.00;99.90;;;;;;5113527;28;20281;-77
2022/06/05 03:17:16;;;;;;;26.67;20.93;;;14.00;99.90;;;;;;5115055;27;20257;-76
2022/06/05 03:19:43;;;;;;;28.90;22.17;;;14.00;99.90;;;;;;5112071;28;20225;-76
2022/06/05 03:22:10;;;;;;;26.63;20.53;;;14.00;99.90;;;;;;5111135;28;20226;-76
2022/06/05 03:24:37;;;;;;;27.10;21.20;;;14.10;99.90;;;;;;5111893;28;20289;-76
2022/06/05 03:27:04;;;;;;;26.17;21.23;;;14.00;99.90;;;;;;5111924;28;20318;-76
2022/06/05 03:29:31;;;;;;;25.53;21.13;;;14.00;99.90;;;;;;5111660;28;20712;-76
2022/06/05 03:31:59;;;;;;;27.40;21.60;;;14.00;99.90;;;;;;5117611;28;20276;-76
2022/06/05 03:34:27;;;;;;;26.40;21.40;;;14.00;99.90;;;;;;5131971;27;20197;-76
2022/06/05 03:36:54;;;;;;;30.03;22.00;;;14.00;99.90;;;;;;5132498;27;20216;-76
2022/06/05 03:39:21;;;;;;;25.73;22.30;;;14.00;99.90;;;;;;5132082;27;20229;-76
2022/06/05 03:41:48;;;;;;;27.87;23.00;;;14.00;99.90;;;;;;5125739;27;20198;-76
2022/06/05 03:44:15;;;;;;;29.50;23.00;;;14.00;99.90;;;;;;5115523;28;20562;-76
2022/06/05 03:46:42;;;;;;;28.83;22.77;;;14.00;99.90;;;;;;5131901;27;20232;-76
2022/06/05 03:49:14;;;;;;;31.67;22.13;;;14.00;99.90;;;;;;5124357;27;20280;-76
2022/06/05 03:51:41;;;;;;;30.03;22.90;;;13.90;99.90;;;;;;5110746;28;20202;-76
2022/06/05 03:54:08;;;;;;;29.23;22.00;;;13.90;99.90;;;;;;5127354;27;20414;-76
2022/06/05 03:56:35;;;;;;;39.27;22.67;;;13.90;99.90;;;;;;5118052;27;20209;-76
2022/06/05 03:59:02;;;;;;;31.73;21.67;;;13.90;99.90;;;;;;5135399;27;20285;-76
2022/06/05 04:01:29;;;;;;;30.40;19.73;;;13.80;99.90;;;;;;5118223;27;20201;-76
2022/06/05 04:03:57;;;;;;;24.77;19.63;;;13.80;99.90;;;;;;5114542;28;20280;-76
2022/06/05 04:06:29;;;;;;;29.07;20.23;;;13.80;99.90;;;;;;5133009;27;20209;-76
2022/06/05 04:08:57;;;;;;;26.83;19.40;;;13.80;99.90;;;;;;5131259;27;20193;-76
2022/06/05 04:11:24;;;;;;;23.63;19.37;;;13.80;99.90;;;;;;5135609;27;20612;-76
2022/06/05 04:13:51;;;;;;;24.70;19.17;;;13.80;99.90;;;;;;5135518;27;20288;-76
2022/06/05 04:16:20;;;;;;;30.97;19.60;;;13.80;99.90;;;;;;5135273;27;20355;-76
2022/06/05 04:18:48;;;;;;;22.70;19.00;;;13.80;99.90;;;;;;5121307;27;20245;-76
2022/06/05 04:21:17;;;;;;;25.80;18.67;;;13.80;99.90;;;;;;5116896;27;20194;-76
2022/06/05 04:23:45;;;;;;;23.33;19.17;;;13.80;99.90;;;;;;5115887;27;20285;-76
2022/06/05 04:26:15;;;;;;;24.80;18.97;;;13.80;99.90;;;;;;5117772;27;20280;-76
2022/06/05 04:28:42;;;;;;;22.63;18.70;;;13.80;99.90;;;;;;5133889;27;20224;-76
2022/06/05 04:31:19;;;;;;;23.90;19.60;;;13.80;99.90;;;;;;5113987;28;20301;-76
2022/06/05 04:33:46;;;;;;;27.33;19.00;;;13.80;99.90;;;;;;5114658;28;20288;-76
2022/06/05 04:36:14;;;;;;;26.60;18.87;;;13.80;99.90;;;;;;5113905;27;20308;-76
2022/06/05 04:38:41;;;;;;;30.40;18.87;;;13.80;99.90;;;;;;5114377;28;20200;-76
2022/06/05 04:41:09;;;;;;;21.80;17.93;;;13.80;99.90;;;;;;5114428;28;20285;-76
2022/06/05 04:43:36;;;;;;;24.57;18.43;;;13.80;99.90;;;;;;5113892;28;20234;-76
2022/06/05 04:46:03;;;;;;;23.13;17.57;;;13.80;99.90;;;;;;5119246;27;20780;-76
2022/06/05 04:48:31;;;;;;;24.60;17.37;;;13.90;99.90;;;;;;5113913;28;20281;-76
2022/06/05 04:50:57;;;;;;;23.33;17.63;;;13.90;99.90;;;;;;5113989;28;20258;-76
2022/06/05 04:53:24;;;;;;;23.40;17.90;;;13.90;99.90;;;;;;5098100;28;20725;-76
2022/06/05 04:55:51;;;;;;;25.03;17.07;;;13.90;99.90;;;;;;5093663;28;20777;-76
2022/06/05 04:58:20;;;;;;;25.27;17.73;;;14.00;99.90;;;;;;5093200;28;20290;-76
2022/06/05 05:00:47;;;;;;;22.53;17.00;;;14.00;99.90;;;;;;5104321;27;20618;-76
2022/06/05 05:03:14;;;;;;;20.97;17.77;;;14.00;99.90;;;;;;5114906;27;20388;-76
2022/06/05 05:05:41;;;;;;;21.73;17.50;;;14.10;99.90;;;;;;5107294;27;20240;-76
2022/06/05 05:08:09;;;;;;;22.67;17.23;;;14.10;99.90;;;;;;5113860;28;20281;-76
2022/06/05 05:10:36;;;;;;;21.47;17.53;;;14.10;99.90;;;;;;5095824;28;20717;-76
2022/06/05 05:13:03;;;;;;;21.87;16.73;;;14.10;99.90;;;;;;5093408;28;20241;-76
2022/06/05 05:15:31;;;;;;;20.40;17.30;;;14.10;99.90;;;;;;5093313;28;20286;-76
2022/06/05 05:17:58;;;;;;;22.83;16.83;;;14.20;99.90;;;;;;5111081;28;20201;-76
2022/06/05 05:20:26;;;;;;;22.90;17.47;;;14.20;99.90;;;;;;5114235;27;20565;-77
2022/06/05 05:22:53;;;;;;;23.97;18.10;;;14.20;99.90;;;;;;5113490;28;20815;-76
2022/06/05 05:25:20;;;;;;;22.90;17.07;;;14.20;99.90;;;;;;5114014;28;20218;-76
2022/06/05 05:27:47;;;;;;;22.67;16.93;;;14.20;99.90;;;;;;5113090;28;20246;-76
2022/06/05 05:30:15;;;;;;;23.90;17.13;;;14.30;99.90;;;;;;5112418;28;20313;-76
2022/06/05 05:32:43;;;;;;;22.13;17.03;;;14.30;99.90;;;;;;5112923;28;20233;-76
2022/06/05 05:35:11;;;;;;;23.17;15.50;;;14.30;99.90;;;;;;5123649;27;20193;-76
2022/06/05 05:37:37;;;;;;;16.43;14.10;;;14.30;99.90;;;;;;5113308;28;20221;-76
2022/06/05 05:42:50;;;;;;;18.70;14.67;;;14.30;99.90;;;;;;5112537;28;20208;-77
2022/06/05 05:45:17;;;;;;;18.93;14.17;;;14.40;99.90;;;;;;5126386;27;20248;-77
2022/06/05 05:47:45;;;;;;;20.60;14.50;;;14.40;99.90;;;;;;5133557;27;20280;-76
2022/06/05 05:50:15;;;;;;;21.70;14.13;;;14.30;99.90;;;;;;5131151;27;20284;-76
2022/06/05 05:52:43;;;;;;;20.17;14.60;;;14.30;99.90;;;;;;5112558;28;20197;-76
2022/06/05 05:55:13;;;;;;;20.73;13.77;;;14.30;99.90;;;;;;5120933;27;20190;-76
2022/06/05 05:57:40;;;;;;;19.77;14.10;;;14.40;99.90;;;;;;5118919;27;20316;-76
2022/06/05 06:00:10;;;;;;;18.67;13.77;;;14.40;99.90;;;;;;5118986;27;20200;-76
2022/06/05 06:02:37;;;;;;;20.40;13.83;;;14.40;99.90;;;;;;5133333;27;20678;-76
2022/06/05 06:05:08;;;;;;;20.60;13.70;;;14.40;99.90;;;;;;5127442;27;20280;-76
2022/06/05 06:07:38;;;;;;;22.33;13.57;;;14.40;99.90;;;;;;5112696;28;20194;-76
2022/06/05 06:10:07;;;;;;;19.40;14.00;;;14.40;99.90;;;;;;5115820;27;20229;-76
2022/06/05 06:12:34;;;;;;;21.43;14.33;;;14.50;99.90;;;;;;5129682;27;20254;-76
2022/06/05 06:15:01;;;;;;;20.77;14.77;;;14.50;99.90;;;;;;5112819;28;20286;-76
2022/06/05 06:17:28;;;;;;;21.90;14.30;;;14.60;99.90;;;;;;5110646;28;20264;-76
2022/06/05 06:19:55;;;;;;;24.60;16.17;;;14.60;99.90;;;;;;5112215;27;20224;-76
2022/06/05 06:22:23;;;;;;;26.13;15.90;;;14.70;99.90;;;;;;5123506;27;20233;-77
2022/06/05 06:24:50;;;;;;;28.27;16.40;;;14.70;99.90;;;;;;5092736;27;20292;-76
2022/06/05 06:27:17;;;;;;;22.47;16.07;;;14.70;99.90;;;;;;5091692;28;20715;-76
2022/06/05 06:29:44;;;;;;;27.67;15.20;;;14.80;99.90;;;;;;5106904;27;20288;-77
2022/06/05 06:32:11;;;;;;;29.53;15.43;;;14.70;99.90;;;;;;5111206;27;20276;-76
2022/06/05 06:34:38;;;;;;;27.43;15.07;;;14.80;99.90;;;;;;5109910;27;20280;-76
2022/06/05 06:37:05;;;;;;;24.67;15.30;;;14.80;99.90;;;;;;5117295;27;20309;-77
2022/06/05 06:39:33;;;;;;;24.43;14.47;;;14.90;99.90;;;;;;5112752;27;20236;-77
2022/06/05 06:42:00;;;;;;;22.07;14.77;;;14.90;99.90;;;;;;5110554;28;20202;-76
2022/06/05 06:44:27;;;;;;;23.63;14.70;;;15.10;99.90;;;;;;5109842;28;20232;-77
2022/06/05 06:46:54;;;;;;;21.47;14.70;;;15.20;99.90;;;;;;5102893;27;20254;-77
2022/06/05 06:49:21;;;;;;;18.63;13.77;;;15.40;99.90;;;;;;5118432;28;20705;-77
2022/06/05 06:51:48;;;;;;;20.10;13.57;;;15.60;99.90;;;;;;5101608;28;20237;-77
2022/06/05 06:54:15;;;;;;;22.17;13.93;;;15.80;99.90;;;;;;5117375;28;20644;-77
2022/06/05 06:56:44;;;;;;;20.20;12.57;;;16.00;99.90;;;;;;5107788;28;20218;-77
2022/06/05 06:59:11;;;;;;;17.73;11.80;;;16.20;99.90;;;;;;5102078;28;20580;-77
2022/06/05 07:01:38;;;;;;;19.23;11.53;;;16.20;99.90;;;;;;5092307;28;20210;-76
2022/06/05 07:04:05;;;;;;;21.30;12.03;;;16.30;99.90;;;;;;5091365;28;20293;-76
2022/06/05 07:06:32;;;;;;;17.07;11.77;;;16.50;99.90;;;;;;5108607;28;20281;-76
2022/06/05 07:08:59;;;;;;;16.73;10.73;;;16.70;99.90;;;;;;5091082;28;20684;-77
2022/06/05 07:11:26;;;;;;;17.00;10.70;;;16.80;99.90;;;;;;5090512;28;20257;-77
2022/06/05 07:13:56;;;;;;;14.63;10.60;;;16.90;99.90;;;;;;5090241;28;20277;-77
2022/06/05 07:16:23;;;;;;;14.73;10.37;;;17.20;99.90;;;;;;5090203;28;20681;-77
2022/06/05 07:18:50;;;;;;;17.90;9.67;;;17.50;99.90;;;;;;5104154;28;20322;-77
2022/06/05 07:21:19;;;;;;;16.37;9.90;;;17.60;99.90;;;;;;5121118;28;20246;-77
2022/06/05 07:23:46;;;;;;;13.77;9.57;;;17.80;99.90;;;;;;5094793;28;20198;-77
2022/06/05 07:26:15;;;;;;;12.98;9.13;;;18.00;99.90;;;;;;5113430;28;20692;-77
2022/06/05 07:28:42;;;;;;;14.55;8.95;;;18.20;99.90;;;;;;5121577;27;20292;-77
2022/06/05 07:31:12;;;;;;;14.05;9.18;;;18.20;99.90;;;;;;5136008;27;20200;-77
2022/06/05 07:33:41;;;;;;;12.60;9.10;;;18.00;99.90;;;;;;5118585;27;20233;-77
2022/06/05 07:36:11;;;;;;;14.23;9.45;;;18.00;99.90;;;;;;5115448;28;20202;-77
2022/06/05 07:38:39;;;;;;;12.43;9.40;;;18.10;99.90;;;;;;5118054;27;20213;-77
2022/06/05 07:41:07;;;;;;;15.88;8.68;;;17.90;99.90;;;;;;5109312;28;20628;-77
2022/06/05 07:43:34;;;;;;;11.63;8.60;;;17.80;99.90;;;;;;5123374;27;20620;-77
2022/06/05 07:46:04;;;;;;;15.77;9.18;;;17.70;99.90;;;;;;5127014;27;20641;-77
2022/06/05 07:48:32;;;;;;;13.57;8.90;;;17.50;99.90;;;;;;5119501;27;20194;-77
2022/06/05 07:56:33;;;;;;;11.13;8.57;;;17.60;99.90;;;;;;5131340;27;20199;-78
2022/06/05 07:59:00;;;;;;;10.77;8.57;;;17.70;99.90;;;;;;5131306;27;20220;-78
2022/06/05 08:01:27;;;;;;;9.77;8.07;;;17.60;99.90;;;;;;5123767;27;20236;-78
2022/06/05 08:03:56;;;;;;;10.48;8.45;;;17.40;99.90;;;;;;5132815;27;20201;-78
2022/06/05 08:06:23;;;;;;;10.87;8.97;;;17.20;99.90;;;;;;5127163;27;20235;-78
2022/06/05 08:08:50;;;;;;;13.13;9.57;;;17.00;99.90;;;;;;5111422;27;20197;-78
2022/06/05 08:11:17;;;;;;;14.32;9.63;;;16.80;99.90;;;;;;5125855;27;20277;-77
2022/06/05 08:13:44;;;;;;;13.57;9.93;;;17.00;99.90;;;;;;5104337;27;20202;-78
2022/06/05 08:16:12;;;;;;;12.85;9.75;;;17.20;99.90;;;;;;5118554;27;20826;-78
2022/06/05 08:18:40;;;;;;;12.48;9.68;;;17.50;99.90;;;;;;5123119;27;20249;-78
2022/06/05 08:21:08;;;;;;;11.90;9.60;;;17.70;99.90;;;;;;5125867;27;20296;-78
2022/06/05 08:23:35;;;;;;;12.35;9.05;;;17.80;99.90;;;;;;5094581;27;20230;-78
2022/06/05 08:26:03;;;;;;;12.40;8.80;;;17.80;99.90;;;;;;5103366;27;20699;-78
2022/06/05 08:28:30;;;;;;;10.48;8.25;;;18.20;99.90;;;;;;5117475;27;20614;-78
2022/06/05 08:30:57;;;;;;;9.98;8.80;;;18.30;99.90;;;;;;5124345;27;20280;-77
2022/06/05 08:33:24;;;;;;;11.05;8.40;;;18.10;99.90;;;;;;5116141;27;20240;-78
2022/06/05 08:35:51;;;;;;;11.48;8.70;;;18.00;99.90;;;;;;5113346;27;20230;-78
2022/06/05 08:41:29;;;;;;;11.93;8.15;;;17.90;99.90;;;;;;5113600;28;20200;-77
2022/06/05 08:44:02;;;;;;;11.45;7.80;;;18.00;99.90;;;;;;5113847;27;20676;-77
2022/06/05 08:46:37;;;;;;;9.38;8.20;;;18.50;99.90;;;;;;5116075;27;20243;-77
2022/06/05 08:49:11;;;;;;;9.98;8.52;;;18.80;99.90;;;;;;5114250;27;20208;-78
2022/06/05 08:51:48;;;;;;;10.30;8.18;;;19.00;99.90;;;;;;5105809;28;20201;-78
2022/06/05 08:54:21;;;;;;;9.88;7.55;;;19.90;99.90;;;;;;5111448;27;20189;-78
2022/06/05 08:56:51;;;;;;;8.52;7.63;;;21.30;99.90;;;;;;5115901;27;20193;-78
2022/06/05 08:59:24;;;;;;;8.38;7.35;;;22.40;99.90;;;;;;5115242;27;20218;-78
2022/06/05 09:01:58;;;;;;;10.60;7.10;;;22.50;99.90;;;;;;5113987;27;20237;-77
2022/06/05 09:04:39;;;;;;;7.78;6.97;;;22.10;99.90;;;;;;5118754;27;20660;-78
2022/06/05 09:07:11;;;;;;;11.05;7.68;;;21.40;99.90;;;;;;5093728;28;20285;-78
2022/06/05 09:09:43;;;;;;;10.00;7.95;;;20.70;99.90;;;;;;5101426;28;20285;-78
2022/06/05 09:12:15;;;;;;;8.93;8.02;;;19.90;99.90;;;;;;5114054;28;20206;-78
2022/06/05 09:14:50;;;;;;;8.48;7.43;;;19.80;99.90;;;;;;5119239;27;20292;-78
2022/06/05 09:17:19;;;;;;;7.57;6.85;;;20.30;99.90;;;;;;5113510;28;20262;-78
2022/06/05 09:19:48;;;;;;;8.70;7.20;;;21.30;99.90;;;;;;5113190;28;20292;-78
2022/06/05 09:22:18;;;;;;;9.63;6.68;;;21.40;99.90;;;;;;5112388;28;20208;-78
2022/06/05 09:25:12;;;;;;;9.75;8.25;;;22.00;99.90;;;;;;5115664;27;20681;-78
2022/06/05 09:27:50;;;;;;;9.70;7.25;;;22.20;99.90;;;;;;5132558;27;20221;-78
2022/06/05 09:30:23;;;;;;;9.80;7.40;;;22.10;99.90;;;;;;5134072;27;20634;-78
2022/06/05 09:33:17;;;;;;;7.88;6.50;;;22.30;99.90;;;;;;5119751;27;20756;-78
2022/06/05 09:35:48;;;;;;;10.20;7.30;;;22.20;99.90;;;;;;5099279;28;20708;-78
2022/06/05 09:38:22;;;;;;;7.65;6.55;;;22.50;99.90;;;;;;5113317;28;20225;-78
2022/06/05 09:41:19;;;;;;;7.10;5.72;;;23.90;99.90;;;;;;5113184;28;20198;-78
2022/06/05 09:44:02;;;;;;;7.28;6.10;;;23.70;99.90;;;;;;5112547;28;20229;-78
2022/06/05 09:46:42;;;;;;;6.80;5.20;;;23.40;99.90;;;;;;5113186;28;20236;-78
2022/06/05 09:49:14;;;;;;;8.27;6.03;;;24.90;99.90;;;;;;5120013;27;20233;-78
2022/06/05 09:51:43;;;;;;;8.40;5.65;;;24.30;99.90;;;;;;5131774;27;20602;-78
2022/06/05 09:54:16;;;;;;;7.13;6.03;;;22.80;99.90;;;;;;5116209;27;20288;-78
2022/06/05 09:59:46;;;;;;;8.30;5.75;;;21.10;99.90;;;;;;5092642;28;20206;-78
2022/06/05 10:02:15;;;;;;;6.75;5.65;;;20.90;99.90;;;;;;5104606;27;20284;-78
2022/06/05 10:04:42;;;;;;;5.97;5.38;;;21.10;99.90;;;;;;5133440;27;20201;-77
2022/06/05 10:07:18;;;;;;;6.68;4.93;;;21.80;99.90;;;;;;5133444;27;20595;-77
2022/06/05 10:09:46;;;;;;;6.28;5.20;;;22.30;99.90;;;;;;5133349;27;20236;-77
2022/06/05 10:12:24;;;;;;;6.82;5.25;;;22.40;99.90;;;;;;5133661;27;20280;-77
2022/06/05 10:14:58;;;;;;;5.28;4.47;;;22.00;99.90;;;;;;5112154;27;20204;-77
2022/06/05 10:17:56;;;;;;;4.68;4.28;;;21.40;99.90;;;;;;5132804;27;20264;-77
2022/06/05 10:20:41;;;;;;;4.18;3.75;;;20.90;99.90;;;;;;5048815;28;20627;-77
2022/06/05 10:23:38;;;;;;;5.85;4.43;;;21.10;99.90;;;;;;5049503;28;20214;-77
2022/06/05 10:26:17;;;;;;;4.38;3.65;;;21.70;99.90;;;;;;5059948;28;20283;-77
2022/06/05 10:28:47;;;;;;;4.57;4.00;;;22.80;99.90;;;;;;5068832;28;20230;-77
2022/06/05 10:31:24;;;;;;;4.68;4.00;;;24.50;99.90;;;;;;5068453;28;20750;-77
2022/06/05 10:34:03;;;;;;;6.35;4.35;;;26.50;99.90;;;;;;5054484;28;20282;-78
2022/06/05 10:36:45;;;;;;;4.32;3.85;;;28.40;99.90;;;;;;5065835;28;20241;-77
2022/06/05 10:39:17;;;;;;;5.20;4.40;;;29.00;99.90;;;;;;5069068;28;20821;-78
2022/06/05 10:41:50;;;;;;;8.73;4.35;;;28.40;99.90;;;;;;5062894;28;20282;-78
2022/06/05 10:44:24;;;;;;;4.28;3.88;;;26.30;99.90;;;;;;5049394;28;20254;-77
2022/06/05 10:47:11;;;;;;;5.82;4.32;;;24.60;99.90;;;;;;5049427;28;20285;-77
2022/06/05 10:49:46;;;;;;;5.57;4.30;;;23.50;99.90;;;;;;5049927;28;20278;-77
2022/06/05 10:52:22;;;;;;;6.60;4.55;;;22.80;99.90;;;;;;5055778;28;20214;-77
2022/06/05 10:54:55;;;;;;;4.78;4.10;;;22.90;99.90;;;;;;5063317;28;20281;-78
2022/06/05 10:57:27;;;;;;;4.40;4.00;;;24.50;99.90;;;;;;5116344;28;20268;-77
2022/06/05 11:00:03;;;;;;;6.22;4.53;;;25.70;99.90;;;;;;5114690;28;20197;-77
2022/06/05 11:02:47;;;;;;;5.22;4.72;;;26.80;99.90;;;;;;5119800;27;20219;-77
2022/06/05 11:05:32;;;;;;;5.78;4.28;;;26.80;99.90;;;;;;5125073;27;20194;-77
2022/06/05 11:08:09;;;;;;;5.10;4.60;;;25.60;99.90;;;;;;5113248;27;20273;-76
2022/06/05 11:13:42;;;;;;;8.10;4.80;;;24.70;99.90;;;;;;5117670;27;20338;-76
2022/06/05 11:16:20;;;;;;;4.93;4.28;;;24.00;99.90;;;;;;5114673;28;20705;-76
2022/06/05 11:18:54;;;;;;;5.00;4.13;;;23.60;99.90;;;;;;5116053;27;21921;-76
2022/06/05 11:21:24;;;;;;;5.47;4.45;;;23.30;99.90;;;;;;5116194;27;20285;-76
2022/06/05 11:23:54;;;;;;;5.18;4.50;;;22.90;99.90;;;;;;5114370;27;20200;-75
2022/06/05 11:26:27;;;;;;;5.10;4.60;;;22.40;99.90;;;;;;5129890;27;20657;-76
2022/06/05 11:29:14;;;;;;;6.82;4.45;;;22.20;99.90;;;;;;5127233;27;20279;-76
2022/06/05 11:31:55;;;;;;;8.20;4.50;;;22.40;99.90;;;;;;5129390;27;20288;-76
2022/06/05 11:34:32;;;;;;;6.30;5.07;;;23.40;99.90;;;;;;5124078;27;20198;-76
2022/06/05 11:37:18;;;;;;;4.45;3.95;;;25.10;99.90;;;;;;5123576;27;20216;-76
2022/06/05 11:39:54;;;;;;;4.45;4.00;;;27.90;99.90;;;;;;5123580;27;20731;-76
2022/06/05 11:42:27;;;;;;;4.82;4.32;;;29.50;99.90;;;;;;5130780;27;20399;-76
2022/06/05 11:44:59;;;;;;;4.47;3.50;;;30.30;99.90;;;;;;5114428;27;20244;-76
2022/06/05 11:47:36;;;;;;;4.78;3.15;;;29.40;99.90;;;;;;5121916;27;20229;-76
2022/06/05 11:50:11;;;;;;;4.10;3.70;;;28.20;99.90;;;;;;5123756;27;20219;-77
2022/06/05 11:52:45;;;;;;;4.22;3.35;;;27.30;99.90;;;;;;5109858;27;20285;-75
2022/06/05 11:55:26;;;;;;;3.90;3.17;;;26.20;99.90;;;;;;5118147;27;20201;-76
2022/06/05 11:58:01;;;;;;;3.90;2.58;;;25.30;99.90;;;;;;5131203;27;20284;-76
2022/06/05 12:00:35;;;;;;;2.50;2.30;;;25.10;99.90;;;;;;5102063;27;20337;-76
2022/06/05 12:03:11;;;;;;;3.97;2.30;;;25.80;99.90;;;;;;5123605;27;20586;-76
2022/06/05 12:05:46;;;;;;;2.40;2.20;;;25.90;99.90;;;;;;5131386;27;20200;-75
2022/06/05 12:08:16;;;;;;;2.97;2.28;;;25.80;99.90;;;;;;5105884;27;20638;-76
2022/06/05 12:10:54;;;;;;;3.97;3.55;;;25.90;99.90;;;;;;5132070;27;20319;-76
2022/06/05 12:13:37;;;;;;;9.82;7.82;;;24.80;99.90;;;;;;5116057;27;20276;-76
2022/06/05 12:16:08;;;;;;;4.28;2.92;;;24.20;99.90;;;;;;5120146;27;20262;-75
2022/06/05 12:18:44;;;;;;;2.75;2.50;;;24.00;99.90;;;;;;5134050;27;20637;-76
2022/06/05 12:21:19;;;;;;;3.70;2.92;;;24.60;99.90;;;;;;5121376;27;20288;-76
2022/06/05 12:23:51;;;;;;;2.50;2.30;;;24.80;99.90;;;;;;5104899;27;20394;-76
2022/06/05 12:26:27;;;;;;;3.42;2.35;;;25.00;99.90;;;;;;5123990;27;20203;-76
2022/06/05 12:29:01;;;;;;;2.90;2.08;;;24.60;99.90;;;;;;5119716;27;20288;-76
2022/06/05 12:31:34;;;;;;;3.20;2.08;;;24.10;99.90;;;;;;5124513;27;20622;-76
2022/06/05 12:34:06;;;;;;;2.40;2.20;;;23.70;99.90;;;;;;5121745;27;20190;-76
2022/06/05 12:36:39;;;;;;;3.60;2.10;;;23.30;99.90;;;;;;5118364;27;20198;-76
2022/06/05 12:39:14;;;;;;;3.38;1.95;;;23.20;99.90;;;;;;5118081;27;20218;-76
2022/06/05 12:41:53;;;;;;;2.38;1.95;;;23.40;99.90;;;;;;5126480;27;20225;-77
2022/06/05 12:44:24;;;;;;;2.67;2.10;;;23.70;99.90;;;;;;5121082;27;20697;-76
2022/06/05 12:46:59;;;;;;;2.85;1.80;;;23.50;99.90;;;;;;5134271;27;20284;-78
2022/06/05 12:49:34;;;;;;;2.97;1.90;;;23.20;99.90;;;;;;5124483;27;20636;-77
2022/06/05 12:52:15;;;;;;;4.13;1.55;;;23.20;99.90;;;;;;5109949;27;20231;-77
2022/06/05 12:54:46;;;;;;;3.53;1.60;;;23.20;99.90;;;;;;5124337;27;20291;-76
2022/06/05 12:57:20;;;;;;;4.35;1.88;;;23.40;99.90;;;;;;5119682;27;20224;-77
2022/06/05 12:59:53;;;;;;;4.75;1.90;;;23.10;99.90;;;;;;5124256;27;20703;-76
2022/06/05 13:02:28;;;;;;;2.42;1.50;;;23.00;99.90;;;;;;5120416;27;20210;-76
2022/06/05 13:05:03;;;;;;;4.40;1.58;;;23.10;99.90;;;;;;5121807;27;20585;-76
2022/06/05 13:07:39;;;;;;;3.40;1.60;;;23.10;99.90;;;;;;5117107;27;20288;-76
2022/06/05 13:10:20;;;;;;;3.33;1.50;;;23.20;99.90;;;;;;5128739;27;20334;-76
2022/06/05 13:12:53;;;;;;;1.95;1.40;;;23.10;99.90;;;;;;5119154;27;20278;-75
2022/06/05 13:15:28;;;;;;;2.58;1.10;;;23.50;99.90;;;;;;5117078;27;20555;-76
2022/06/05 13:18:01;;;;;;;3.25;1.40;;;24.30;99.90;;;;;;5123674;27;20379;-76